Time;durP1;ratioP1;P1;durP2;ratioP2;P2;SDS_P1;SDS_P2;PMS_P1;PMS_P2;Temp;Humidity;BMP_temperature;BMP_pressure;BME280_temperature;BME280_humidity;BME280_pressure;Samples;Min_cycle;Max_cycle;Signal;HPM_P1;HPM_P2
2022/11/24 00:01:43;;;;;;;;;;;5.20;95.90;;;;;;5074395;23;19935;-62
2022/11/24 00:04:12;;;;;;;;;;;5.20;96.00;;;;;;5043423;28;19972;-61
2022/11/24 00:06:37;;;;;;;;;;;5.20;96.00;;;;;;5044996;28;20396;-61
2022/11/24 00:09:03;;;;;;;;;;;5.20;95.90;;;;;;5032933;28;19913;-61
2022/11/24 00:11:31;;;;;;;;;;;5.20;95.70;;;;;;5048006;28;20019;-62
2022/11/24 00:13:57;;;;;;;;;;;5.30;95.50;;;;;;5033056;28;19968;-62
2022/11/24 00:16:23;;;;;;;;;;;5.30;95.30;;;;;;5040431;28;19955;-62
2022/11/24 00:18:50;;;;;;;;;;;5.40;95.00;;;;;;5046466;28;19924;-61
2022/11/24 00:21:17;;;;;;;;;;;5.30;95.00;;;;;;5036046;28;19928;-62
2022/11/24 00:23:43;;;;;;;;;;;5.20;95.10;;;;;;5031618;28;20006;-62
2022/11/24 00:26:13;;;;;;;;;;;5.10;95.70;;;;;;5034348;28;20369;-61
2022/11/24 00:28:39;;;;;;;;;;;5.00;96.00;;;;;;5035193;28;20329;-61
2022/11/24 00:31:24;;;;;;;;;;;5.00;96.00;;;;;;5040495;28;19935;-62
2022/11/24 00:33:51;;;;;;;;;;;4.90;96.00;;;;;;5052277;28;19913;-62
2022/11/24 00:36:17;;;;;;;;;;;4.90;96.10;;;;;;5035407;28;19913;-62
2022/11/24 00:38:44;;;;;;;;;;;5.00;96.00;;;;;;5034573;28;19917;-62
2022/11/24 00:41:09;;;;;;;;;;;5.10;95.80;;;;;;5051356;28;20067;-62
2022/11/24 00:43:35;;;;;;;;;;;5.10;95.70;;;;;;5033562;28;19974;-61
2022/11/24 00:46:00;;;;;;;;;;;5.10;95.60;;;;;;5037986;28;19913;-61
2022/11/24 00:48:26;;;;;;;;;;;5.10;95.50;;;;;;5032447;28;19913;-61
2022/11/24 00:50:59;;;;;;;;;;;5.10;95.70;;;;;;5032533;28;20339;-61
2022/11/24 00:53:25;;;;;;;;;;;5.00;95.80;;;;;;5040059;28;19999;-62
2022/11/24 00:55:51;;;;;;;;;;;5.10;96.10;;;;;;5039944;28;20016;-62
2022/11/24 00:58:20;;;;;;;;;;;5.10;95.90;;;;;;5031965;28;19913;-61
2022/11/24 01:00:46;;;;;;;;;;;5.10;95.70;;;;;;5044443;28;19924;-61
2022/11/24 01:03:12;;;;;;;;;;;5.10;95.40;;;;;;5032036;28;20003;-61
2022/11/24 01:05:38;;;;;;;;;;;5.10;95.30;;;;;;5030931;28;19919;-62
2022/11/24 01:08:07;;;;;;;;;;;5.10;95.20;;;;;;5042939;28;20312;-61
2022/11/24 01:10:33;;;;;;;;;;;5.10;95.10;;;;;;5031826;28;19964;-61
2022/11/24 01:13:02;;;;;;;;;;;5.00;95.10;;;;;;5031767;28;20377;-61
2022/11/24 01:15:29;;;;;;;;;;;5.00;95.10;;;;;;5037866;28;19932;-62
2022/11/24 01:17:55;;;;;;;;;;;5.00;95.10;;;;;;5034315;28;19913;-62
2022/11/24 01:20:20;;;;;;;;;;;5.00;95.30;;;;;;5046496;28;19920;-61
2022/11/24 01:22:49;;;;;;;;;;;5.00;95.30;;;;;;5032662;28;19917;-61
2022/11/24 01:25:14;;;;;;;;;;;5.00;95.30;;;;;;5045906;28;19913;-61
2022/11/24 01:27:40;;;;;;;;;;;4.90;95.20;;;;;;5045449;28;19968;-61
2022/11/24 01:30:06;;;;;;;;;;;4.80;95.30;;;;;;5036033;28;20297;-61
2022/11/24 01:32:32;;;;;;;;;;;4.60;95.90;;;;;;5019637;28;19959;-61
2022/11/24 01:34:58;;;;;;;;;;;4.60;96.30;;;;;;5038113;28;19920;-62
2022/11/24 01:37:24;;;;;;;;;;;4.60;96.20;;;;;;5037012;28;20297;-61
2022/11/24 01:39:50;;;;;;;;;;;4.70;95.90;;;;;;5034127;28;19913;-62
2022/11/24 01:42:16;;;;;;;;;;;4.80;95.60;;;;;;5037444;28;20299;-62
2022/11/24 01:44:44;;;;;;;;;;;4.80;95.40;;;;;;5036511;28;19948;-62
2022/11/24 01:47:23;;;;;;;;;;;4.90;95.30;;;;;;5039410;28;19921;-61
2022/11/24 01:50:00;;;;;;;;;;;4.90;95.20;;;;;;5025961;28;20404;-62
2022/11/24 01:52:34;;;;;;;;;;;4.90;95.10;;;;;;5035775;28;19909;-62
2022/11/24 01:55:02;;;;;;;;;;;4.80;95.30;;;;;;5035520;28;19913;-62
2022/11/24 01:57:32;;;;;;;;;;;4.70;95.70;;;;;;5035649;28;19910;-62
2022/11/24 02:00:05;;;;;;;;;;;4.60;96.40;;;;;;5034030;28;19912;-62
2022/11/24 02:02:31;;;;;;;;;;;4.60;96.90;;;;;;5035471;28;20376;-62
2022/11/24 02:04:58;;;;;;;;;;;4.70;96.90;;;;;;5035760;28;19909;-61
2022/11/24 02:07:24;;;;;;;;;;;4.80;96.70;;;;;;5035356;28;19983;-61
2022/11/24 02:09:52;;;;;;;;;;;4.80;96.50;;;;;;5035118;28;19940;-61
2022/11/24 02:12:18;;;;;;;;;;;4.80;96.20;;;;;;5035399;28;19909;-62
2022/11/24 02:14:44;;;;;;;;;;;4.90;96.10;;;;;;5035212;28;19913;-62
2022/11/24 02:17:10;;;;;;;;;;;4.90;95.70;;;;;;5035403;28;20396;-62
2022/11/24 02:20:02;;;;;;;;;;;4.90;95.60;;;;;;5039308;28;19920;-62
2022/11/24 02:22:46;;;;;;;;;;;4.80;96.00;;;;;;5027968;28;19917;-62
2022/11/24 02:25:21;;;;;;;;;;;4.70;96.80;;;;;;5036677;28;19967;-61
2022/11/24 02:27:47;;;;;;;;;;;4.80;97.30;;;;;;5048268;28;20027;-61
2022/11/24 02:30:13;;;;;;;;;;;4.80;97.60;;;;;;5048620;28;19921;-61
2022/11/24 02:32:42;;;;;;;;;;;4.90;97.50;;;;;;5034897;28;20111;-62
2022/11/24 02:35:08;;;;;;;;;;;4.90;97.50;;;;;;5036807;28;19967;-62
2022/11/24 02:37:34;;;;;;;;;;;4.90;97.30;;;;;;5036665;28;19921;-62
2022/11/24 02:40:00;;;;;;;;;;;4.90;97.30;;;;;;5052833;28;19938;-61
2022/11/24 02:42:31;;;;;;;;;;;4.90;97.50;;;;;;5054350;28;19952;-61
2022/11/24 02:45:02;;;;;;;;;;;5.00;97.60;;;;;;5052521;28;20320;-61
2022/11/24 02:47:27;;;;;;;;;;;5.00;97.60;;;;;;5035236;28;19958;-62
2022/11/24 02:49:53;;;;;;;;;;;4.90;97.50;;;;;;5051403;28;19999;-62
2022/11/24 02:52:19;;;;;;;;;;;4.90;97.20;;;;;;5034563;28;20004;-61
2022/11/24 02:54:44;;;;;;;;;;;4.90;97.30;;;;;;5033204;28;20381;-61
2022/11/24 02:57:10;;;;;;;;;;;4.90;97.20;;;;;;5034829;28;19916;-62
2022/11/24 02:59:36;;;;;;;;;;;4.80;97.10;;;;;;5034270;28;20431;-62
2022/11/24 03:02:02;;;;;;;;;;;4.80;97.30;;;;;;5049939;28;19924;-62
2022/11/24 03:04:28;;;;;;;;;;;4.80;97.40;;;;;;5036126;28;19920;-62
2022/11/24 03:06:53;;;;;;;;;;;4.70;97.20;;;;;;5045559;28;20381;-62
2022/11/24 03:09:19;;;;;;;;;;;4.60;97.30;;;;;;5051667;28;20009;-61
2022/11/24 03:11:45;;;;;;;;;;;4.50;97.20;;;;;;5039557;28;20381;-61
2022/11/24 03:14:10;;;;;;;;;;;4.40;97.70;;;;;;5048838;28;20336;-62
2022/11/24 03:16:36;;;;;;;;;;;4.40;97.90;;;;;;5035511;28;19917;-61
2022/11/24 03:19:02;;;;;;;;;;;4.50;97.90;;;;;;5033909;28;19952;-62
2022/11/24 03:21:28;;;;;;;;;;;4.50;98.00;;;;;;5048843;28;20284;-61
2022/11/24 03:23:57;;;;;;;;;;;4.60;97.90;;;;;;5051014;28;20012;-61
2022/11/24 03:26:23;;;;;;;;;;;4.60;97.60;;;;;;5048806;28;19915;-61
2022/11/24 03:28:49;;;;;;;;;;;4.70;97.60;;;;;;5032463;28;19909;-61
2022/11/24 03:31:14;;;;;;;;;;;4.70;97.50;;;;;;5043065;28;20016;-61
2022/11/24 03:33:40;;;;;;;;;;;4.70;97.10;;;;;;5040775;28;19999;-61
2022/11/24 03:36:06;;;;;;;;;;;4.70;97.10;;;;;;5046578;28;20289;-61
2022/11/24 03:38:31;;;;;;;;;;;4.80;97.00;;;;;;5044694;28;19914;-61
2022/11/24 03:40:57;;;;;;;;;;;4.90;96.80;;;;;;5033466;28;19916;-62
2022/11/24 03:43:23;;;;;;;;;;;4.90;96.70;;;;;;5034659;28;20309;-61
2022/11/24 03:45:49;;;;;;;;;;;4.90;96.40;;;;;;5034003;28;19920;-62
2022/11/24 03:48:15;;;;;;;;;;;4.90;96.30;;;;;;5042574;28;20357;-62
2022/11/24 03:50:40;;;;;;;;;;;4.90;95.70;;;;;;5046046;28;19913;-61
2022/11/24 03:53:06;;;;;;;;;;;4.90;96.00;;;;;;5040947;28;20385;-61
2022/11/24 03:55:34;;;;;;;;;;;4.90;96.00;;;;;;5050389;28;19912;-61
2022/11/24 03:58:03;;;;;;;;;;;4.90;96.10;;;;;;5053408;28;19909;-61
2022/11/24 04:00:29;;;;;;;;;;;4.90;95.80;;;;;;5047438;28;19917;-61
2022/11/24 04:02:57;;;;;;;;;;;4.90;95.70;;;;;;5045419;28;20419;-61
2022/11/24 04:05:24;;;;;;;;;;;4.80;95.70;;;;;;5047870;28;19912;-62
2022/11/24 04:07:49;;;;;;;;;;;4.80;95.70;;;;;;5043277;28;20004;-62
2022/11/24 04:10:15;;;;;;;;;;;4.80;95.70;;;;;;5051439;28;19947;-61
2022/11/24 04:12:43;;;;;;;;;;;4.70;95.70;;;;;;5039995;28;19913;-62
2022/11/24 04:15:16;;;;;;;;;;;4.60;95.50;;;;;;5032926;28;20286;-62
2022/11/24 04:17:43;;;;;;;;;;;4.50;95.60;;;;;;5046045;28;20435;-62
2022/11/24 04:20:09;;;;;;;;;;;4.40;96.20;;;;;;5052039;28;19948;-62
2022/11/24 04:22:41;;;;;;;;;;;4.20;96.00;;;;;;5038883;28;19921;-61
2022/11/24 04:25:08;;;;;;;;;;;4.10;96.00;;;;;;5049376;28;19913;-61
2022/11/24 04:27:34;;;;;;;;;;;4.00;96.40;;;;;;5037278;28;20008;-61
2022/11/24 04:29:59;;;;;;;;;;;4.00;96.80;;;;;;5037053;28;20419;-61
2022/11/24 04:32:25;;;;;;;;;;;4.10;96.80;;;;;;5050433;28;19917;-61
2022/11/24 04:34:51;;;;;;;;;;;4.00;96.40;;;;;;5051757;28;19908;-61
2022/11/24 04:37:16;;;;;;;;;;;3.90;97.10;;;;;;5037916;28;19919;-61
2022/11/24 04:39:43;;;;;;;;;;;3.90;97.30;;;;;;5031949;28;19909;-62
2022/11/24 04:42:09;;;;;;;;;;;3.90;97.30;;;;;;5032799;28;19917;-61
2022/11/24 04:44:34;;;;;;;;;;;4.00;97.10;;;;;;5043724;28;19927;-62
2022/11/24 04:47:00;;;;;;;;;;;3.90;97.20;;;;;;5043811;28;19946;-61
2022/11/24 04:49:26;;;;;;;;;;;4.00;97.20;;;;;;5048799;28;20324;-61
2022/11/24 04:51:54;;;;;;;;;;;4.10;96.90;;;;;;5032249;28;20010;-61
2022/11/24 04:54:20;;;;;;;;;;;4.20;96.50;;;;;;5032066;28;19909;-50
2022/11/24 04:56:48;;;;;;;;;;;4.20;96.60;;;;;;5033246;28;19913;-64
2022/11/24 04:59:14;;;;;;;;;;;4.20;96.30;;;;;;5032321;28;19940;-63
2022/11/24 05:01:44;;;;;;;;;;;4.30;96.20;;;;;;5031533;28;19921;-63
2022/11/24 05:04:14;;;;;;;;;;;4.40;95.70;;;;;;5030969;28;19953;-63
2022/11/24 05:06:42;;;;;;;;;;;4.30;95.40;;;;;;5031917;28;19917;-63
2022/11/24 05:09:10;;;;;;;;;;;4.30;95.00;;;;;;5030835;28;19949;-63
2022/11/24 05:11:36;;;;;;;;;;;4.20;95.20;;;;;;5032040;28;19916;-63
2022/11/24 05:14:05;;;;;;;;;;;4.20;95.50;;;;;;5032059;28;19909;-63
2022/11/24 05:16:30;;;;;;;;;;;4.30;95.50;;;;;;5030834;28;19944;-63
2022/11/24 05:18:59;;;;;;;;;;;4.30;95.10;;;;;;5031932;28;19987;-63
2022/11/24 05:21:24;;;;;;;;;;;4.30;95.20;;;;;;5031918;28;19917;-64
2022/11/24 05:23:50;;;;;;;;;;;4.30;95.10;;;;;;5032108;28;20012;-63
2022/11/24 05:26:16;;;;;;;;;;;4.30;95.00;;;;;;5031985;28;19916;-63
2022/11/24 05:28:41;;;;;;;;;;;4.30;95.10;;;;;;5031913;28;19909;-63
2022/11/24 05:31:07;;;;;;;;;;;4.30;94.90;;;;;;5031929;28;19952;-63
2022/11/24 05:33:57;;;;;;;;;;;4.30;95.00;;;;;;5030520;28;19964;-63
2022/11/24 05:39:07;;;;;;;;;;;4.40;94.80;;;;;;5031891;28;20427;-63
2022/11/24 05:41:33;;;;;;;;;;;4.40;94.90;;;;;;5030547;28;19916;-63
2022/11/24 05:43:58;;;;;;;;;;;4.40;94.80;;;;;;5031835;28;20012;-63
2022/11/24 05:46:25;;;;;;;;;;;4.40;94.60;;;;;;5031913;28;19953;-63
2022/11/24 05:48:50;;;;;;;;;;;4.30;94.70;;;;;;5031681;28;19987;-63
2022/11/24 05:51:16;;;;;;;;;;;4.30;94.90;;;;;;5032162;28;20353;-63
2022/11/24 05:53:42;;;;;;;;;;;4.30;94.90;;;;;;5031921;28;20397;-63
2022/11/24 05:56:08;;;;;;;;;;;4.30;94.70;;;;;;5031806;28;19940;-63
2022/11/24 05:58:33;;;;;;;;;;;4.30;94.80;;;;;;5030280;28;19916;-63
2022/11/24 06:00:59;;;;;;;;;;;4.30;94.90;;;;;;5031893;28;19956;-63
2022/11/24 06:03:43;;;;;;;;;;;4.30;94.90;;;;;;5031732;28;20384;-63
2022/11/24 06:06:09;;;;;;;;;;;4.30;94.80;;;;;;5031313;28;19910;-63
2022/11/24 06:08:35;;;;;;;;;;;4.20;94.70;;;;;;5031849;28;20389;-63
2022/11/24 06:11:19;;;;;;;;;;;4.20;94.70;;;;;;5035284;28;20012;-63
2022/11/24 06:13:45;;;;;;;;;;;4.20;94.80;;;;;;5034141;28;20332;-62
2022/11/24 06:16:14;;;;;;;;;;;4.20;94.70;;;;;;5035360;28;19939;-63
2022/11/24 06:18:40;;;;;;;;;;;4.10;94.60;;;;;;5033759;28;19913;-63
2022/11/24 06:21:05;;;;;;;;;;;4.10;94.50;;;;;;5035045;28;19963;-63
2022/11/24 06:23:31;;;;;;;;;;;4.00;94.60;;;;;;5035079;28;20289;-63
2022/11/24 06:25:57;;;;;;;;;;;3.90;94.70;;;;;;5035173;28;20072;-63
2022/11/24 06:28:23;;;;;;;;;;;3.80;94.90;;;;;;5034753;28;19909;-63
2022/11/24 06:30:49;;;;;;;;;;;3.80;95.10;;;;;;5034791;28;19916;-63
2022/11/24 06:33:14;;;;;;;;;;;3.80;95.10;;;;;;5034996;28;19909;-63
2022/11/24 06:35:40;;;;;;;;;;;3.90;95.20;;;;;;5034902;28;20309;-63
2022/11/24 06:38:08;;;;;;;;;;;3.90;95.10;;;;;;5034680;28;20404;-64
2022/11/24 06:40:34;;;;;;;;;;;3.90;94.70;;;;;;5034794;28;19936;-62
2022/11/24 06:43:00;;;;;;;;;;;3.90;94.80;;;;;;5034696;28;19917;-63
2022/11/24 06:45:25;;;;;;;;;;;3.80;95.00;;;;;;5033411;28;20365;-63
2022/11/24 06:47:54;;;;;;;;;;;3.80;95.10;;;;;;5034719;28;19909;-63
2022/11/24 06:50:21;;;;;;;;;;;3.90;95.00;;;;;;5034495;28;19917;-63
2022/11/24 06:52:46;;;;;;;;;;;3.90;94.90;;;;;;5034378;28;20306;-63
2022/11/24 06:55:13;;;;;;;;;;;3.90;94.80;;;;;;5034354;28;19909;-63
2022/11/24 06:57:38;;;;;;;;;;;3.90;94.60;;;;;;5034591;28;19916;-63
2022/11/24 07:00:04;;;;;;;;;;;3.80;94.90;;;;;;5032974;28;19909;-64
2022/11/24 07:02:30;;;;;;;;;;;3.80;95.00;;;;;;5032944;28;19928;-63
2022/11/24 07:04:56;;;;;;;;;;;3.90;95.00;;;;;;5034374;28;19909;-63
2022/11/24 07:07:21;;;;;;;;;;;3.90;95.00;;;;;;5034348;28;20007;-63
2022/11/24 07:09:47;;;;;;;;;;;3.90;94.90;;;;;;5034165;28;19909;-62
2022/11/24 07:12:13;;;;;;;;;;;4.00;95.00;;;;;;5034369;28;20279;-63
2022/11/24 07:14:38;;;;;;;;;;;4.00;95.00;;;;;;5034271;28;19909;-62
2022/11/24 07:17:04;;;;;;;;;;;4.10;94.90;;;;;;5034495;28;19909;-63
2022/11/24 07:19:30;;;;;;;;;;;4.10;94.90;;;;;;5034051;28;20245;-63
2022/11/24 07:21:55;;;;;;;;;;;4.10;94.90;;;;;;5031927;28;20408;-63
2022/11/24 07:24:21;;;;;;;;;;;4.20;95.00;;;;;;5033849;28;20290;-63
2022/11/24 07:26:47;;;;;;;;;;;4.20;95.10;;;;;;5033138;28;19960;-63
2022/11/24 07:29:12;;;;;;;;;;;4.20;95.10;;;;;;5033818;28;20439;-63
2022/11/24 07:31:41;;;;;;;;;;;4.20;95.10;;;;;;5033909;28;19952;-63
2022/11/24 07:34:07;;;;;;;;;;;4.30;95.20;;;;;;5033868;28;19909;-63
2022/11/24 07:36:33;;;;;;;;;;;4.30;95.10;;;;;;5031994;28;19913;-63
2022/11/24 07:38:59;;;;;;;;;;;4.30;95.10;;;;;;5032192;28;20126;-62
2022/11/24 07:41:25;;;;;;;;;;;4.40;95.40;;;;;;5033258;28;20397;-63
2022/11/24 07:43:55;;;;;;;;;;;4.40;95.40;;;;;;5033021;28;20230;-63
2022/11/24 07:46:21;;;;;;;;;;;4.40;95.30;;;;;;5033687;28;20352;-63
2022/11/24 07:48:47;;;;;;;;;;;4.50;95.20;;;;;;5032176;28;19909;-63
2022/11/24 07:54:17;;;;;;;;;;;4.70;94.90;;;;;;5009745;28;19964;-63
2022/11/24 07:56:48;;;;;;;;;;;4.80;94.90;;;;;;5032473;28;19909;-63
2022/11/24 07:59:17;;;;;;;;;;;4.80;94.70;;;;;;5033213;28;19916;-63
2022/11/24 08:01:43;;;;;;;;;;;4.90;94.70;;;;;;5031777;28;19927;-63
2022/11/24 08:04:12;;;;;;;;;;;5.00;94.80;;;;;;5033246;28;20000;-63
2022/11/24 08:06:37;;;;;;;;;;;5.00;94.60;;;;;;5033104;28;19949;-63
2022/11/24 08:09:03;;;;;;;;;;;5.10;94.40;;;;;;5033112;28;19952;-63
2022/11/24 08:11:30;;;;;;;;;;;5.20;94.40;;;;;;5033118;28;20176;-63
2022/11/24 08:13:55;;;;;;;;;;;5.20;94.20;;;;;;5033069;28;19955;-63
2022/11/24 08:16:21;;;;;;;;;;;5.30;94.20;;;;;;5033186;28;20297;-63
2022/11/24 08:18:54;;;;;;;;;;;5.40;94.40;;;;;;5032807;28;19909;-63
2022/11/24 08:21:21;;;;;;;;;;;5.50;94.20;;;;;;5032810;28;20019;-63
2022/11/24 08:23:54;;;;;;;;;;;5.50;94.10;;;;;;5032990;28;20359;-63
2022/11/24 08:26:20;;;;;;;;;;;5.60;93.90;;;;;;5032834;28;20000;-66
2022/11/24 08:28:46;;;;;;;;;;;5.70;93.70;;;;;;5032783;28;20419;-66
2022/11/24 08:31:13;;;;;;;;;;;5.70;93.70;;;;;;5032845;28;19947;-65
2022/11/24 08:33:39;;;;;;;;;;;5.90;93.70;;;;;;5032599;28;19913;-65
2022/11/24 08:36:06;;;;;;;;;;;5.90;93.70;;;;;;5032739;28;20532;-62
2022/11/24 08:38:34;;;;;;;;;;;6.00;93.40;;;;;;5032548;28;19909;-63
2022/11/24 08:41:10;;;;;;;;;;;6.00;93.20;;;;;;5032391;28;19948;-63
2022/11/24 08:43:36;;;;;;;;;;;6.10;93.20;;;;;;5032493;28;19984;-63
2022/11/24 08:46:03;;;;;;;;;;;6.20;93.10;;;;;;5032266;28;19912;-63
2022/11/24 08:48:29;;;;;;;;;;;6.20;93.00;;;;;;5032396;28;19909;-63
2022/11/24 08:50:55;;;;;;;;;;;6.30;92.90;;;;;;5032405;28;20385;-63
2022/11/24 08:53:20;;;;;;;;;;;6.30;92.70;;;;;;5032417;28;19909;-63
2022/11/24 08:55:46;;;;;;;;;;;6.30;92.60;;;;;;5032393;28;19916;-63
2022/11/24 08:58:12;;;;;;;;;;;6.40;92.50;;;;;;5032253;28;20396;-63
2022/11/24 09:00:37;;;;;;;;;;;6.50;92.40;;;;;;5032122;28;20020;-63
2022/11/24 09:03:03;;;;;;;;;;;6.50;92.10;;;;;;5032105;28;19974;-63
2022/11/24 09:05:29;;;;;;;;;;;6.50;91.80;;;;;;5032222;28;19916;-63
2022/11/24 09:07:54;;;;;;;;;;;6.50;92.10;;;;;;5032173;28;19915;-63
2022/11/24 09:10:20;;;;;;;;;;;6.60;92.20;;;;;;5031916;28;19913;-62
2022/11/24 09:12:46;;;;;;;;;;;6.60;92.30;;;;;;5032244;28;20366;-63
2022/11/24 09:15:12;;;;;;;;;;;6.70;91.80;;;;;;5032037;28;20384;-63
2022/11/24 09:17:38;;;;;;;;;;;6.70;91.60;;;;;;5030832;28;19909;-63
2022/11/24 09:20:04;;;;;;;;;;;6.70;91.60;;;;;;5031956;28;19971;-63
2022/11/24 09:22:33;;;;;;;;;;;6.80;91.70;;;;;;5030828;28;19924;-63
2022/11/24 09:24:59;;;;;;;;;;;6.80;92.20;;;;;;5032088;28;19913;-64
2022/11/24 09:27:24;;;;;;;;;;;6.80;92.10;;;;;;5031946;28;20055;-63
2022/11/24 09:29:53;;;;;;;;;;;6.90;91.50;;;;;;5031838;28;19909;-63
2022/11/24 09:32:18;;;;;;;;;;;6.90;91.20;;;;;;5032043;28;19909;-63
2022/11/24 09:34:44;;;;;;;;;;;7.00;91.10;;;;;;5032020;28;20496;-63
2022/11/24 09:37:13;;;;;;;;;;;7.10;91.40;;;;;;5031958;28;20413;-63
2022/11/24 09:39:42;;;;;;;;;;;7.20;91.10;;;;;;5031713;28;20197;-63
2022/11/24 09:42:26;;;;;;;;;;;7.20;90.60;;;;;;5031802;28;19913;-63
2022/11/24 09:45:07;;;;;;;;;;;7.30;90.70;;;;;;5034317;28;19909;-63
2022/11/24 09:47:36;;;;;;;;;;;7.40;90.50;;;;;;5035801;28;20000;-63
2022/11/24 09:50:12;;;;;;;;;;;7.40;90.30;;;;;;5035548;28;19937;-63
2022/11/24 09:52:48;;;;;;;;;;;7.50;90.70;;;;;;5035714;28;19917;-63
2022/11/24 09:55:30;;;;;;;;;;;7.60;90.50;;;;;;5035688;28;19909;-63
2022/11/24 09:58:08;;;;;;;;;;;7.70;90.10;;;;;;5035614;28;19916;-63
2022/11/24 10:00:35;;;;;;;;;;;7.70;88.80;;;;;;5035173;28;19976;-63
2022/11/24 10:03:01;;;;;;;;;;;7.80;90.00;;;;;;5033136;28;19917;-64
2022/11/24 10:05:27;;;;;;;;;;;7.90;89.90;;;;;;5033976;28;20285;-64
2022/11/24 10:11:14;;;;;;;;;;;8.10;88.10;;;;;;5030889;28;19916;-63
2022/11/24 10:13:50;;;;;;;;;;;8.20;88.70;;;;;;5033396;28;20431;-63
2022/11/24 10:16:34;;;;;;;;;;;8.30;88.50;;;;;;5034090;28;20298;-65
2022/11/24 10:18:59;;;;;;;;;;;8.40;87.90;;;;;;5032890;28;20360;-63
2022/11/24 10:21:33;;;;;;;;;;;8.60;87.00;;;;;;5033880;28;19917;-63
2022/11/24 10:24:12;;;;;;;;;;;8.70;88.20;;;;;;5033317;28;19917;-65
2022/11/24 10:26:50;;;;;;;;;;;8.80;86.80;;;;;;5033796;28;20349;-64
2022/11/24 10:29:24;;;;;;;;;;;8.90;86.50;;;;;;5034110;28;19909;-64
2022/11/24 10:31:52;;;;;;;;;;;9.00;86.70;;;;;;5033764;28;19913;-64
2022/11/24 10:34:38;;;;;;;;;;;9.10;87.70;;;;;;5031716;28;20293;-64
2022/11/24 10:37:13;;;;;;;;;;;9.20;86.30;;;;;;5033814;28;19909;-64
2022/11/24 10:39:56;;;;;;;;;;;9.30;81.40;;;;;;5033496;28;19931;-63
2022/11/24 10:42:33;;;;;;;;;;;9.50;83.30;;;;;;5033714;28;19913;-63
2022/11/24 10:45:12;;;;;;;;;;;9.60;82.90;;;;;;5033667;28;19909;-63
2022/11/24 10:47:39;;;;;;;;;;;9.70;79.70;;;;;;5032459;28;20281;-64
2022/11/24 10:50:17;;;;;;;;;;;9.70;79.90;;;;;;5033426;28;19909;-63
2022/11/24 10:52:45;;;;;;;;;;;9.80;82.00;;;;;;5033573;28;20448;-63
2022/11/24 10:55:11;;;;;;;;;;;9.90;82.30;;;;;;5033594;28;20408;-64
2022/11/24 10:57:40;;;;;;;;;;;10.00;83.40;;;;;;5033398;28;19952;-64
2022/11/24 11:00:18;;;;;;;;;;;10.20;78.00;;;;;;5033224;28;20440;-64
2022/11/24 11:02:48;;;;;;;;;;;10.20;77.70;;;;;;4967843;28;1885563;-63
2022/11/24 11:05:36;;;;;;;;;;;10.30;76.80;;;;;;5034369;28;19916;-64
2022/11/24 11:08:13;;;;;;;;;;;10.40;74.10;;;;;;5034427;28;19909;-64
2022/11/24 11:10:39;;;;;;;;;;;10.40;75.80;;;;;;5034347;28;20301;-65
2022/11/24 11:13:26;;;;;;;;;;;10.50;76.20;;;;;;5034116;28;19916;-64
2022/11/24 11:15:51;;;;;;;;;;;10.60;73.00;;;;;;5034217;28;19932;-64
2022/11/24 11:18:18;;;;;;;;;;;10.70;74.80;;;;;;5034099;28;19909;-64
2022/11/24 11:20:51;;;;;;;;;;;10.70;75.20;;;;;;5034593;28;20377;-64
2022/11/24 11:23:25;;;;;;;;;;;10.80;74.50;;;;;;5034093;28;19916;-64
2022/11/24 11:26:11;;;;;;;;;;;10.80;76.40;;;;;;5033896;28;19909;-66
2022/11/24 11:28:37;;;;;;;;;;;;;;;;;;5047636;28;19944;-65
2022/11/24 11:31:04;;;;;;;;;;;10.90;76.10;;;;;;5043842;28;20368;-64
2022/11/24 11:33:30;;;;;;;;;;;11.00;74.40;;;;;;5038813;28;19941;-64
2022/11/24 11:36:02;;;;;;;;;;;11.10;76.00;;;;;;5053800;28;20319;-64
2022/11/24 11:38:32;;;;;;;;;;;11.20;76.40;;;;;;5047752;28;20020;-65
2022/11/24 11:40:59;;;;;;;;;;;11.30;73.20;;;;;;5043621;28;19936;-64
2022/11/24 11:43:27;;;;;;;;;;;11.40;73.40;;;;;;5034893;28;19917;-64
2022/11/24 11:49:00;;;;;;;;;;;11.50;72.10;;;;;;5032079;28;20016;-64
2022/11/24 11:51:47;;;;;;;;;;;11.60;73.00;;;;;;5044788;28;19935;-65
2022/11/24 11:54:31;;;;;;;;;;;11.60;72.70;;;;;;5013585;28;19920;-64
2022/11/24 11:57:20;;;;;;;;;;;11.70;72.00;;;;;;5021951;28;19918;-63
2022/11/24 12:02:29;;;;;;;;;;;15.00;62.20;;;;;;5074534;22;19933;-54
2022/11/24 12:08:27;;;;;;;;;;;15.10;60.50;;;;;;5043918;28;19936;-52
2022/11/24 12:10:55;;;;;;;;;;;16.10;56.00;;;;;;5031284;28;19921;-51
2022/11/24 12:13:40;;;;;;;;;;;17.60;52.50;;;;;;5048593;28;19913;-53
2022/11/24 12:16:13;;;;;;;;;;;17.40;53.00;;;;;;5041639;28;20282;-52
2022/11/24 12:18:42;;;;;;;;;;;17.30;51.80;;;;;;5034377;28;19913;-55
2022/11/24 12:21:18;;;;;;;;;;;19.40;48.30;;;;;;5038840;28;19913;-54
2022/11/24 12:24:09;;;;;;;;;;;20.60;44.60;;;;;;5034392;28;19917;-55
2022/11/24 12:26:52;;;;;;;;;;;22.00;42.10;;;;;;5037801;28;19913;-52
2022/11/24 12:29:37;;;;;;;;;;;24.20;42.60;;;;;;5041156;28;19924;-54
2022/11/24 12:32:20;;;;;;;;;;;24.30;38.00;;;;;;5048566;28;19970;-53
2022/11/24 12:34:46;;;;;;;;;;;23.20;38.30;;;;;;5036570;28;19912;-52
2022/11/24 12:37:30;;;;;;;;;;;22.60;42.10;;;;;;5038357;28;20428;-53
2022/11/24 12:40:22;;;;;;;;;;;21.50;41.30;;;;;;5039999;28;19913;-54
2022/11/24 12:42:59;;;;;;;;;;;18.90;45.40;;;;;;5036565;28;20441;-52
2022/11/24 12:45:37;;;;;;;;;;;17.00;50.20;;;;;;5037666;28;19921;-53
2022/11/24 12:48:12;;;;;;;;;;;15.60;54.30;;;;;;5032372;28;20395;-52
2022/11/24 12:50:38;;;;;;;;;;;14.90;56.50;;;;;;5051061;28;19975;-54
2022/11/24 12:53:10;;;;;;;;;;;14.80;57.80;;;;;;5067585;28;20000;-52
2022/11/24 12:55:37;;;;;;;;;;;15.10;58.30;;;;;;5050621;28;19913;-53
2022/11/24 12:58:10;;;;;;;;;;;15.70;57.90;;;;;;5040909;28;20544;-53
2022/11/24 13:00:59;;;;;;;;;;;15.90;53.90;;;;;;5045913;28;19916;-52
2022/11/24 13:03:45;;;;;;;;;;;15.60;55.50;;;;;;5031889;28;19917;-52
2022/11/24 13:09:14;;;;;;;;;;;15.60;56.90;;;;;;5049795;28;20396;-52
2022/11/24 13:12:06;;;;;;;;;;;16.70;55.20;;;;;;5052012;28;19908;-52
2022/11/24 13:14:36;;;;;;;;;;;17.90;50.50;;;;;;5031085;28;19919;-52
2022/11/24 13:17:23;;;;;;;;;;;17.40;52.70;;;;;;5035730;28;20388;-54
2022/11/24 13:19:49;;;;;;;;;;;17.30;51.20;;;;;;5030973;28;20496;-52
2022/11/24 13:22:17;;;;;;;;;;;17.40;52.50;;;;;;5031765;28;20016;-53
2022/11/24 13:24:44;;;;;;;;;;;17.70;51.50;;;;;;5032943;28;20439;-55
2022/11/24 13:27:15;;;;;;;;;;;17.50;51.20;;;;;;5032016;28;19913;-55
2022/11/24 13:29:47;;;;;;;;;;;17.20;53.10;;;;;;5032226;28;20397;-52
2022/11/24 13:32:22;;;;;;;;;;;16.50;53.80;;;;;;5047765;28;19959;-52
2022/11/24 13:34:54;;;;;;;;;;;16.10;55.30;;;;;;5050010;28;19999;-53
2022/11/24 13:37:22;;;;;;;;;;;16.50;56.00;;;;;;5051630;28;20031;-55
2022/11/24 13:39:51;;;;;;;;;;;17.70;53.20;;;;;;5051635;28;19930;-53
2022/11/24 13:42:20;;;;;;;;;;;17.70;51.20;;;;;;5048980;28;19925;-53
2022/11/24 13:44:47;;;;;;;;;;;17.70;51.90;;;;;;5036961;28;19920;-54
2022/11/24 13:47:29;;;;;;;;;;;17.60;51.30;;;;;;5033861;28;19913;-52
2022/11/24 13:49:54;;;;;;;;;;;17.40;51.80;;;;;;5031679;28;19909;-53
2022/11/24 13:52:38;;;;;;;;;;;16.90;52.00;;;;;;5034447;28;20383;-52
2022/11/24 13:55:10;;;;;;;;;;;16.50;53.40;;;;;;5051658;28;19998;-54
2022/11/24 14:03:48;;;;;;;;;;;15.70;56.80;;;;;;5069385;28;20348;-53
2022/11/24 14:06:23;;;;;;;;;;;15.40;56.60;;;;;;5071426;28;19982;-56
2022/11/24 14:08:48;;;;;;;;;;;15.10;58.20;;;;;;5066545;28;20381;-53
2022/11/24 14:11:16;;;;;;;;;;;15.00;59.10;;;;;;5066694;28;19958;-53
2022/11/24 14:13:41;;;;;;;;;;;14.80;59.70;;;;;;5057341;28;19913;-53
2022/11/24 14:16:17;;;;;;;;;;;14.80;59.30;;;;;;5059759;28;20442;-52
2022/11/24 14:18:47;;;;;;;;;;;14.80;59.50;;;;;;5062767;28;20392;-52
2022/11/24 14:21:18;;;;;;;;;;;14.70;59.10;;;;;;5063962;28;19934;-55
2022/11/24 14:23:45;;;;;;;;;;;14.50;59.80;;;;;;5056913;28;19916;-55
2022/11/24 14:26:19;;;;;;;;;;;14.40;59.80;;;;;;5052460;28;19940;-56
2022/11/24 14:28:44;;;;;;;;;;;14.30;59.40;;;;;;5070507;28;19916;-56
2022/11/24 14:31:23;;;;;;;;;;;14.20;60.90;;;;;;5044759;28;20409;-52
2022/11/24 14:33:49;;;;;;;;;;;14.10;60.60;;;;;;5069134;28;19912;-53
2022/11/24 14:36:19;;;;;;;;;;;14.10;61.10;;;;;;5065345;28;19919;-56
2022/11/24 14:38:45;;;;;;;;;;;14.00;62.10;;;;;;5062033;28;20388;-54
2022/11/24 14:41:18;;;;;;;;;;;13.90;61.80;;;;;;5072933;28;19956;-55
2022/11/24 14:43:44;;;;;;;;;;;13.80;62.40;;;;;;5060950;28;19917;-54
2022/11/24 14:46:16;;;;;;;;;;;13.80;62.00;;;;;;5041336;28;20281;-55
2022/11/24 14:48:49;;;;;;;;;;;13.70;62.40;;;;;;5066455;28;19919;-53
2022/11/24 14:51:15;;;;;;;;;;;;;;;;;;5056490;28;19916;-54
2022/11/24 14:53:41;;;;;;;;;;;;;;;;;;5062037;28;20301;-56
2022/11/24 14:56:07;;;;;;;;;;;;;;;;;;5064336;28;19913;-56
2022/11/24 14:58:33;;;;;;;;;;;;;;;;;;5059768;28;19917;-53
2022/11/24 15:00:59;;;;;;;;;;;;;;;;;;5065662;28;19912;-53
2022/11/24 15:03:25;;;;;;;;;;;;;;;;;;5064644;28;20299;-53
2022/11/24 15:05:51;;;;;;;;;;;;;;;;;;5072608;28;20014;-56
2022/11/24 15:08:17;;;;;;;;;;;;;;;;;;5059488;28;19912;-56
2022/11/24 15:10:43;;;;;;;;;;;;;;;;;;5071283;28;19936;-53